sensor_id;sensor_type;location;lat;lon;timestamp;P1;durP1;ratioP1;P2;durP2;ratioP2
50301;SDS011;36550;50.472;19.744;2022-12-18T00:02:21;38.55;;;13.08;;
50301;SDS011;36550;50.472;19.744;2022-12-18T00:05:06;36.35;;;12.80;;
50301;SDS011;36550;50.472;19.744;2022-12-18T00:07:50;34.30;;;12.73;;
50301;SDS011;36550;50.472;19.744;2022-12-18T00:10:35;33.13;;;12.60;;
50301;SDS011;36550;50.472;19.744;2022-12-18T00:13:19;37.35;;;13.62;;
50301;SDS011;36550;50.472;19.744;2022-12-18T00:16:07;33.63;;;12.73;;
50301;SDS011;36550;50.472;19.744;2022-12-18T00:18:55;35.03;;;13.08;;
50301;SDS011;36550;50.472;19.744;2022-12-18T00:21:41;36.88;;;13.00;;
50301;SDS011;36550;50.472;19.744;2022-12-18T00:24:27;28.47;;;9.95;;
50301;SDS011;36550;50.472;19.744;2022-12-18T00:27:11;32.88;;;12.75;;
50301;SDS011;36550;50.472;19.744;2022-12-18T00:29:55;39.08;;;12.53;;
50301;SDS011;36550;50.472;19.744;2022-12-18T00:32:40;34.67;;;11.75;;
50301;SDS011;36550;50.472;19.744;2022-12-18T00:35:24;28.92;;;10.13;;
50301;SDS011;36550;50.472;19.744;2022-12-18T00:38:08;37.28;;;13.15;;
50301;SDS011;36550;50.472;19.744;2022-12-18T00:40:52;32.80;;;12.25;;
50301;SDS011;36550;50.472;19.744;2022-12-18T00:43:37;35.68;;;12.58;;
50301;SDS011;36550;50.472;19.744;2022-12-18T00:46:23;36.80;;;13.53;;
50301;SDS011;36550;50.472;19.744;2022-12-18T00:49:07;34.83;;;12.80;;
50301;SDS011;36550;50.472;19.744;2022-12-18T00:51:52;32.88;;;11.85;;
50301;SDS011;36550;50.472;19.744;2022-12-18T00:54:37;30.17;;;10.40;;
50301;SDS011;36550;50.472;19.744;2022-12-18T00:57:21;36.73;;;12.85;;
50301;SDS011;36550;50.472;19.744;2022-12-18T01:00:06;39.63;;;13.70;;
50301;SDS011;36550;50.472;19.744;2022-12-18T01:02:52;27.50;;;9.38;;
50301;SDS011;36550;50.472;19.744;2022-12-18T01:05:38;34.83;;;12.20;;
50301;SDS011;36550;50.472;19.744;2022-12-18T01:08:24;35.00;;;13.45;;
50301;SDS011;36550;50.472;19.744;2022-12-18T01:11:09;33.20;;;11.50;;
50301;SDS011;36550;50.472;19.744;2022-12-18T01:13:57;32.65;;;12.58;;
50301;SDS011;36550;50.472;19.744;2022-12-18T01:16:41;36.53;;;13.25;;
50301;SDS011;36550;50.472;19.744;2022-12-18T01:19:25;44.70;;;16.70;;
50301;SDS011;36550;50.472;19.744;2022-12-18T01:22:10;39.73;;;13.90;;
50301;SDS011;36550;50.472;19.744;2022-12-18T01:24:54;35.95;;;12.23;;
50301;SDS011;36550;50.472;19.744;2022-12-18T01:27:38;30.12;;;11.28;;
50301;SDS011;36550;50.472;19.744;2022-12-18T01:30:23;28.83;;;10.70;;
50301;SDS011;36550;50.472;19.744;2022-12-18T01:33:07;35.88;;;11.75;;
50301;SDS011;36550;50.472;19.744;2022-12-18T01:35:51;32.85;;;11.08;;
50301;SDS011;36550;50.472;19.744;2022-12-18T01:38:36;28.73;;;10.13;;
50301;SDS011;36550;50.472;19.744;2022-12-18T01:41:21;30.48;;;11.20;;
50301;SDS011;36550;50.472;19.744;2022-12-18T01:47:54;28.85;;;10.40;;
50301;SDS011;36550;50.472;19.744;2022-12-18T01:50:48;34.43;;;12.68;;
50301;SDS011;36550;50.472;19.744;2022-12-18T01:53:33;35.80;;;12.53;;
50301;SDS011;36550;50.472;19.744;2022-12-18T01:56:18;40.35;;;13.18;;
50301;SDS011;36550;50.472;19.744;2022-12-18T01:59:04;37.55;;;12.70;;
50301;SDS011;36550;50.472;19.744;2022-12-18T02:01:51;40.50;;;13.38;;
50301;SDS011;36550;50.472;19.744;2022-12-18T02:04:35;31.25;;;11.63;;
50301;SDS011;36550;50.472;19.744;2022-12-18T02:19:33;36.00;;;11.90;;
50301;SDS011;36550;50.472;19.744;2022-12-18T02:22:27;30.35;;;11.78;;
50301;SDS011;36550;50.472;19.744;2022-12-18T02:28:15;38.02;;;12.90;;
50301;SDS011;36550;50.472;19.744;2022-12-18T02:31:02;31.23;;;11.53;;
50301;SDS011;36550;50.472;19.744;2022-12-18T02:33:51;32.98;;;12.90;;
50301;SDS011;36550;50.472;19.744;2022-12-18T02:36:40;32.83;;;11.90;;
50301;SDS011;36550;50.472;19.744;2022-12-18T02:39:27;36.08;;;13.70;;
50301;SDS011;36550;50.472;19.744;2022-12-18T02:42:14;40.33;;;14.78;;
50301;SDS011;36550;50.472;19.744;2022-12-18T02:45:00;37.28;;;14.47;;
50301;SDS011;36550;50.472;19.744;2022-12-18T02:47:45;44.35;;;16.93;;
50301;SDS011;36550;50.472;19.744;2022-12-18T02:50:37;41.08;;;16.32;;
50301;SDS011;36550;50.472;19.744;2022-12-18T02:53:45;41.88;;;16.45;;
50301;SDS011;36550;50.472;19.744;2022-12-18T02:56:42;46.08;;;19.00;;
50301;SDS011;36550;50.472;19.744;2022-12-18T02:59:38;47.78;;;19.87;;
50301;SDS011;36550;50.472;19.744;2022-12-18T03:05:16;39.33;;;16.52;;
50301;SDS011;36550;50.472;19.744;2022-12-18T03:08:17;35.35;;;13.78;;
50301;SDS011;36550;50.472;19.744;2022-12-18T03:11:12;40.15;;;15.55;;
50301;SDS011;36550;50.472;19.744;2022-12-18T03:13:55;35.58;;;14.53;;
50301;SDS011;36550;50.472;19.744;2022-12-18T03:16:42;36.15;;;14.20;;
50301;SDS011;36550;50.472;19.744;2022-12-18T03:19:28;38.73;;;15.80;;
50301;SDS011;36550;50.472;19.744;2022-12-18T03:22:15;42.40;;;16.12;;
50301;SDS011;36550;50.472;19.744;2022-12-18T03:25:01;36.10;;;14.20;;
50301;SDS011;36550;50.472;19.744;2022-12-18T03:27:50;38.50;;;14.98;;
50301;SDS011;36550;50.472;19.744;2022-12-18T03:30:38;38.05;;;14.05;;
50301;SDS011;36550;50.472;19.744;2022-12-18T03:33:26;40.65;;;14.07;;
50301;SDS011;36550;50.472;19.744;2022-12-18T03:36:14;40.15;;;15.28;;
50301;SDS011;36550;50.472;19.744;2022-12-18T03:38:59;44.13;;;16.85;;
50301;SDS011;36550;50.472;19.744;2022-12-18T03:41:54;43.60;;;16.52;;
50301;SDS011;36550;50.472;19.744;2022-12-18T03:51:02;42.40;;;15.40;;
50301;SDS011;36550;50.472;19.744;2022-12-18T03:53:57;44.98;;;15.10;;
50301;SDS011;36550;50.472;19.744;2022-12-18T03:56:44;43.17;;;15.78;;
50301;SDS011;36550;50.472;19.744;2022-12-18T03:59:33;39.92;;;15.35;;
50301;SDS011;36550;50.472;19.744;2022-12-18T04:02:18;41.63;;;16.07;;
50301;SDS011;36550;50.472;19.744;2022-12-18T04:05:06;45.15;;;16.65;;
50301;SDS011;36550;50.472;19.744;2022-12-18T04:07:52;45.92;;;16.50;;
50301;SDS011;36550;50.472;19.744;2022-12-18T04:10:38;43.83;;;17.02;;
50301;SDS011;36550;50.472;19.744;2022-12-18T04:13:23;47.15;;;17.20;;
50301;SDS011;36550;50.472;19.744;2022-12-18T04:16:13;41.83;;;15.58;;
50301;SDS011;36550;50.472;19.744;2022-12-18T04:18:57;47.80;;;16.77;;
50301;SDS011;36550;50.472;19.744;2022-12-18T04:21:43;44.70;;;16.30;;
50301;SDS011;36550;50.472;19.744;2022-12-18T04:24:27;46.98;;;17.32;;
50301;SDS011;36550;50.472;19.744;2022-12-18T04:27:11;55.38;;;18.80;;
50301;SDS011;36550;50.472;19.744;2022-12-18T04:29:55;49.23;;;18.98;;
50301;SDS011;36550;50.472;19.744;2022-12-18T04:32:40;47.53;;;17.85;;
50301;SDS011;36550;50.472;19.744;2022-12-18T04:35:25;47.65;;;17.80;;
50301;SDS011;36550;50.472;19.744;2022-12-18T04:38:09;52.78;;;19.48;;
50301;SDS011;36550;50.472;19.744;2022-12-18T04:40:54;55.48;;;19.45;;
50301;SDS011;36550;50.472;19.744;2022-12-18T04:43:38;53.83;;;19.32;;
50301;SDS011;36550;50.472;19.744;2022-12-18T04:46:22;62.15;;;22.62;;
50301;SDS011;36550;50.472;19.744;2022-12-18T04:49:07;68.20;;;25.70;;
50301;SDS011;36550;50.472;19.744;2022-12-18T04:51:51;78.52;;;29.10;;
50301;SDS011;36550;50.472;19.744;2022-12-18T04:54:36;86.72;;;34.00;;
50301;SDS011;36550;50.472;19.744;2022-12-18T04:57:20;83.80;;;28.52;;
50301;SDS011;36550;50.472;19.744;2022-12-18T05:00:05;68.72;;;24.10;;
50301;SDS011;36550;50.472;19.744;2022-12-18T05:02:50;69.27;;;25.30;;
50301;SDS011;36550;50.472;19.744;2022-12-18T05:05:35;66.22;;;24.65;;
50301;SDS011;36550;50.472;19.744;2022-12-18T05:08:19;59.25;;;22.58;;
50301;SDS011;36550;50.472;19.744;2022-12-18T05:11:04;56.28;;;19.60;;
50301;SDS011;36550;50.472;19.744;2022-12-18T05:13:51;51.50;;;19.32;;
50301;SDS011;36550;50.472;19.744;2022-12-18T05:16:36;50.15;;;18.50;;
50301;SDS011;36550;50.472;19.744;2022-12-18T05:19:20;48.63;;;17.02;;
50301;SDS011;36550;50.472;19.744;2022-12-18T05:22:05;45.48;;;17.15;;
50301;SDS011;36550;50.472;19.744;2022-12-18T05:24:50;62.75;;;22.15;;
50301;SDS011;36550;50.472;19.744;2022-12-18T05:27:35;56.30;;;18.35;;
50301;SDS011;36550;50.472;19.744;2022-12-18T05:30:19;45.17;;;17.48;;
50301;SDS011;36550;50.472;19.744;2022-12-18T05:33:03;63.10;;;25.82;;
50301;SDS011;36550;50.472;19.744;2022-12-18T05:35:54;62.43;;;27.10;;
50301;SDS011;36550;50.472;19.744;2022-12-18T05:38:41;60.43;;;24.02;;
50301;SDS011;36550;50.472;19.744;2022-12-18T05:41:25;62.15;;;23.85;;
50301;SDS011;36550;50.472;19.744;2022-12-18T05:44:10;54.15;;;23.12;;
50301;SDS011;36550;50.472;19.744;2022-12-18T05:46:54;49.90;;;20.17;;
50301;SDS011;36550;50.472;19.744;2022-12-18T05:49:39;56.77;;;20.62;;
50301;SDS011;36550;50.472;19.744;2022-12-18T05:52:23;60.92;;;21.12;;
50301;SDS011;36550;50.472;19.744;2022-12-18T05:55:07;64.72;;;22.22;;
50301;SDS011;36550;50.472;19.744;2022-12-18T05:57:51;111.28;;;34.25;;
50301;SDS011;36550;50.472;19.744;2022-12-18T06:00:36;110.80;;;38.02;;
50301;SDS011;36550;50.472;19.744;2022-12-18T06:03:24;146.37;;;50.75;;
50301;SDS011;36550;50.472;19.744;2022-12-18T06:09:03;206.13;;;61.90;;
50301;SDS011;36550;50.472;19.744;2022-12-18T06:11:52;272.52;;;69.60;;
50301;SDS011;36550;50.472;19.744;2022-12-18T06:14:37;215.22;;;57.62;;
50301;SDS011;36550;50.472;19.744;2022-12-18T06:17:21;158.27;;;40.78;;
50301;SDS011;36550;50.472;19.744;2022-12-18T06:20:06;133.20;;;39.90;;
50301;SDS011;36550;50.472;19.744;2022-12-18T06:22:51;91.70;;;28.42;;
50301;SDS011;36550;50.472;19.744;2022-12-18T06:25:40;98.15;;;32.65;;
50301;SDS011;36550;50.472;19.744;2022-12-18T06:28:23;98.62;;;32.40;;
50301;SDS011;36550;50.472;19.744;2022-12-18T06:31:07;88.10;;;27.70;;
50301;SDS011;36550;50.472;19.744;2022-12-18T06:33:52;78.97;;;26.00;;
50301;SDS011;36550;50.472;19.744;2022-12-18T06:36:37;97.02;;;34.00;;
50301;SDS011;36550;50.472;19.744;2022-12-18T06:39:21;116.65;;;37.98;;
50301;SDS011;36550;50.472;19.744;2022-12-18T06:42:05;126.25;;;46.37;;
50301;SDS011;36550;50.472;19.744;2022-12-18T06:44:50;144.65;;;47.35;;
50301;SDS011;36550;50.472;19.744;2022-12-18T06:47:34;189.72;;;64.05;;
50301;SDS011;36550;50.472;19.744;2022-12-18T06:50:18;129.60;;;44.55;;
50301;SDS011;36550;50.472;19.744;2022-12-18T06:53:03;112.52;;;37.93;;
50301;SDS011;36550;50.472;19.744;2022-12-18T06:55:47;100.18;;;35.98;;
50301;SDS011;36550;50.472;19.744;2022-12-18T06:58:31;113.65;;;34.25;;
50301;SDS011;36550;50.472;19.744;2022-12-18T07:01:16;83.17;;;27.15;;
50301;SDS011;36550;50.472;19.744;2022-12-18T07:04:00;63.00;;;23.60;;
50301;SDS011;36550;50.472;19.744;2022-12-18T07:06:44;100.58;;;34.23;;
50301;SDS011;36550;50.472;19.744;2022-12-18T07:09:28;117.93;;;37.80;;
50301;SDS011;36550;50.472;19.744;2022-12-18T07:12:13;100.53;;;32.35;;
50301;SDS011;36550;50.472;19.744;2022-12-18T07:14:57;102.20;;;33.98;;
50301;SDS011;36550;50.472;19.744;2022-12-18T07:17:41;92.85;;;32.73;;
50301;SDS011;36550;50.472;19.744;2022-12-18T07:20:26;80.35;;;28.75;;
50301;SDS011;36550;50.472;19.744;2022-12-18T07:23:10;68.75;;;23.05;;
50301;SDS011;36550;50.472;19.744;2022-12-18T07:25:54;76.50;;;26.30;;
50301;SDS011;36550;50.472;19.744;2022-12-18T07:28:39;69.17;;;24.43;;
50301;SDS011;36550;50.472;19.744;2022-12-18T07:31:25;76.50;;;27.37;;
50301;SDS011;36550;50.472;19.744;2022-12-18T07:34:11;74.85;;;27.77;;
50301;SDS011;36550;50.472;19.744;2022-12-18T07:39:41;148.05;;;48.45;;
50301;SDS011;36550;50.472;19.744;2022-12-18T07:42:25;160.30;;;58.98;;
50301;SDS011;36550;50.472;19.744;2022-12-18T07:45:18;122.45;;;48.38;;
50301;SDS011;36550;50.472;19.744;2022-12-18T07:48:02;112.08;;;43.23;;
50301;SDS011;36550;50.472;19.744;2022-12-18T07:50:47;136.68;;;50.05;;
50301;SDS011;36550;50.472;19.744;2022-12-18T07:53:32;109.55;;;40.98;;
50301;SDS011;36550;50.472;19.744;2022-12-18T07:56:17;103.47;;;37.00;;
50301;SDS011;36550;50.472;19.744;2022-12-18T07:59:03;105.52;;;36.50;;
50301;SDS011;36550;50.472;19.744;2022-12-18T08:01:48;104.63;;;40.88;;
50301;SDS011;36550;50.472;19.744;2022-12-18T08:04:32;119.37;;;48.85;;
50301;SDS011;36550;50.472;19.744;2022-12-18T08:07:16;64.77;;;24.23;;
50301;SDS011;36550;50.472;19.744;2022-12-18T08:10:01;57.15;;;18.82;;
50301;SDS011;36550;50.472;19.744;2022-12-18T08:12:45;57.27;;;23.18;;
50301;SDS011;36550;50.472;19.744;2022-12-18T08:15:31;53.87;;;20.82;;
50301;SDS011;36550;50.472;19.744;2022-12-18T08:18:16;56.37;;;21.85;;
50301;SDS011;36550;50.472;19.744;2022-12-18T08:21:09;44.08;;;18.62;;
50301;SDS011;36550;50.472;19.744;2022-12-18T08:23:57;77.53;;;28.73;;
50301;SDS011;36550;50.472;19.744;2022-12-18T08:26:44;66.40;;;23.98;;
50301;SDS011;36550;50.472;19.744;2022-12-18T08:29:28;155.30;;;63.25;;
50301;SDS011;36550;50.472;19.744;2022-12-18T08:32:13;104.00;;;40.25;;
50301;SDS011;36550;50.472;19.744;2022-12-18T08:34:58;129.27;;;50.43;;
50301;SDS011;36550;50.472;19.744;2022-12-18T08:37:45;116.67;;;43.75;;
50301;SDS011;36550;50.472;19.744;2022-12-18T08:40:29;87.45;;;31.68;;
50301;SDS011;36550;50.472;19.744;2022-12-18T08:43:13;81.42;;;30.08;;
50301;SDS011;36550;50.472;19.744;2022-12-18T08:46:21;86.65;;;30.25;;
50301;SDS011;36550;50.472;19.744;2022-12-18T08:49:04;95.72;;;32.70;;
50301;SDS011;36550;50.472;19.744;2022-12-18T08:51:53;70.32;;;27.48;;
50301;SDS011;36550;50.472;19.744;2022-12-18T08:54:37;61.98;;;22.37;;
50301;SDS011;36550;50.472;19.744;2022-12-18T08:57:22;55.08;;;20.88;;
50301;SDS011;36550;50.472;19.744;2022-12-18T09:00:06;41.00;;;17.35;;
50301;SDS011;36550;50.472;19.744;2022-12-18T09:02:52;41.40;;;15.20;;
50301;SDS011;36550;50.472;19.744;2022-12-18T09:05:36;39.45;;;14.40;;
50301;SDS011;36550;50.472;19.744;2022-12-18T09:08:20;31.82;;;12.47;;
50301;SDS011;36550;50.472;19.744;2022-12-18T09:11:09;36.40;;;13.78;;
50301;SDS011;36550;50.472;19.744;2022-12-18T09:13:58;37.90;;;14.87;;
50301;SDS011;36550;50.472;19.744;2022-12-18T09:16:44;36.88;;;14.30;;
50301;SDS011;36550;50.472;19.744;2022-12-18T09:19:29;37.58;;;13.58;;
50301;SDS011;36550;50.472;19.744;2022-12-18T09:22:13;39.20;;;14.35;;
50301;SDS011;36550;50.472;19.744;2022-12-18T09:24:58;35.35;;;13.75;;
50301;SDS011;36550;50.472;19.744;2022-12-18T09:27:42;42.08;;;16.67;;
50301;SDS011;36550;50.472;19.744;2022-12-18T09:30:26;39.70;;;16.75;;
50301;SDS011;36550;50.472;19.744;2022-12-18T09:33:11;43.10;;;16.82;;
50301;SDS011;36550;50.472;19.744;2022-12-18T09:35:55;106.07;;;50.35;;
50301;SDS011;36550;50.472;19.744;2022-12-18T09:38:39;54.50;;;22.90;;
50301;SDS011;36550;50.472;19.744;2022-12-18T09:44:41;112.05;;;32.03;;
50301;SDS011;36550;50.472;19.744;2022-12-18T09:47:36;88.95;;;32.05;;
50301;SDS011;36550;50.472;19.744;2022-12-18T09:53:18;64.05;;;26.62;;
50301;SDS011;36550;50.472;19.744;2022-12-18T09:56:03;115.08;;;51.45;;
50301;SDS011;36550;50.472;19.744;2022-12-18T09:59:09;78.75;;;30.65;;
50301;SDS011;36550;50.472;19.744;2022-12-18T10:01:44;46.87;;;18.57;;
50301;SDS011;36550;50.472;19.744;2022-12-18T10:04:29;42.50;;;16.05;;
50301;SDS011;36550;50.472;19.744;2022-12-18T10:07:21;44.08;;;16.52;;
50301;SDS011;36550;50.472;19.744;2022-12-18T10:13:19;62.55;;;27.58;;
50301;SDS011;36550;50.472;19.744;2022-12-18T10:19:01;57.58;;;24.35;;
50301;SDS011;36550;50.472;19.744;2022-12-18T10:22:21;43.05;;;17.95;;
50301;SDS011;36550;50.472;19.744;2022-12-18T10:25:43;43.83;;;17.40;;
50301;SDS011;36550;50.472;19.744;2022-12-18T10:28:29;52.95;;;20.90;;
50301;SDS011;36550;50.472;19.744;2022-12-18T10:31:17;54.08;;;19.30;;
50301;SDS011;36550;50.472;19.744;2022-12-18T10:34:09;61.70;;;22.55;;
50301;SDS011;36550;50.472;19.744;2022-12-18T10:36:55;54.25;;;19.45;;
50301;SDS011;36550;50.472;19.744;2022-12-18T10:39:39;41.42;;;14.87;;
50301;SDS011;36550;50.472;19.744;2022-12-18T10:42:23;40.20;;;14.00;;
50301;SDS011;36550;50.472;19.744;2022-12-18T10:47:58;35.70;;;13.05;;
50301;SDS011;36550;50.472;19.744;2022-12-18T10:50:43;33.53;;;13.08;;
50301;SDS011;36550;50.472;19.744;2022-12-18T10:53:33;34.75;;;13.08;;
50301;SDS011;36550;50.472;19.744;2022-12-18T10:56:19;33.23;;;11.88;;
50301;SDS011;36550;50.472;19.744;2022-12-18T10:59:12;44.03;;;16.37;;
50301;SDS011;36550;50.472;19.744;2022-12-18T11:01:57;48.20;;;17.07;;
50301;SDS011;36550;50.472;19.744;2022-12-18T11:04:49;80.10;;;28.77;;
50301;SDS011;36550;50.472;19.744;2022-12-18T11:07:48;75.00;;;27.27;;
50301;SDS011;36550;50.472;19.744;2022-12-18T11:10:35;62.45;;;20.10;;
50301;SDS011;36550;50.472;19.744;2022-12-18T11:13:23;62.95;;;23.22;;
50301;SDS011;36550;50.472;19.744;2022-12-18T11:16:17;60.55;;;22.58;;
50301;SDS011;36550;50.472;19.744;2022-12-18T11:19:10;56.25;;;21.55;;
50301;SDS011;36550;50.472;19.744;2022-12-18T11:22:20;60.65;;;21.68;;
50301;SDS011;36550;50.472;19.744;2022-12-18T11:28:23;78.67;;;26.95;;
50301;SDS011;36550;50.472;19.744;2022-12-18T11:34:12;82.75;;;30.25;;
50301;SDS011;36550;50.472;19.744;2022-12-18T11:37:10;68.95;;;25.45;;
50301;SDS011;36550;50.472;19.744;2022-12-18T11:40:09;61.25;;;21.87;;
50301;SDS011;36550;50.472;19.744;2022-12-18T11:43:02;52.30;;;18.95;;
50301;SDS011;36550;50.472;19.744;2022-12-18T11:46:10;49.98;;;18.07;;
50301;SDS011;36550;50.472;19.744;2022-12-18T11:49:12;50.00;;;18.75;;
50301;SDS011;36550;50.472;19.744;2022-12-18T11:52:04;54.00;;;20.30;;
50301;SDS011;36550;50.472;19.744;2022-12-18T11:54:56;67.80;;;25.43;;
50301;SDS011;36550;50.472;19.744;2022-12-18T12:04:18;82.50;;;28.75;;
50301;SDS011;36550;50.472;19.744;2022-12-18T12:07:11;70.87;;;26.65;;
50301;SDS011;36550;50.472;19.744;2022-12-18T12:14:00;83.07;;;31.90;;
50301;SDS011;36550;50.472;19.744;2022-12-18T12:17:18;89.25;;;34.40;;
50301;SDS011;36550;50.472;19.744;2022-12-18T12:20:37;72.42;;;25.30;;
50301;SDS011;36550;50.472;19.744;2022-12-18T12:23:37;71.95;;;27.50;;
50301;SDS011;36550;50.472;19.744;2022-12-18T12:26:38;78.35;;;27.75;;
50301;SDS011;36550;50.472;19.744;2022-12-18T12:39:01;133.03;;;42.87;;
50301;SDS011;36550;50.472;19.744;2022-12-18T12:41:51;104.45;;;38.30;;
50301;SDS011;36550;50.472;19.744;2022-12-18T12:44:55;128.32;;;43.95;;
50301;SDS011;36550;50.472;19.744;2022-12-18T12:47:42;117.62;;;41.70;;
50301;SDS011;36550;50.472;19.744;2022-12-18T12:50:29;128.65;;;43.95;;
50301;SDS011;36550;50.472;19.744;2022-12-18T12:53:21;140.60;;;47.20;;
50301;SDS011;36550;50.472;19.744;2022-12-18T12:56:07;130.78;;;43.38;;
50301;SDS011;36550;50.472;19.744;2022-12-18T12:59:11;127.55;;;43.73;;
50301;SDS011;36550;50.472;19.744;2022-12-18T13:02:04;120.13;;;41.33;;
50301;SDS011;36550;50.472;19.744;2022-12-18T13:08:29;117.72;;;41.42;;
50301;SDS011;36550;50.472;19.744;2022-12-18T13:11:29;120.40;;;40.90;;
50301;SDS011;36550;50.472;19.744;2022-12-18T13:14:46;110.17;;;38.53;;
50301;SDS011;36550;50.472;19.744;2022-12-18T13:17:30;111.37;;;38.73;;
50301;SDS011;36550;50.472;19.744;2022-12-18T13:20:14;79.30;;;28.25;;
50301;SDS011;36550;50.472;19.744;2022-12-18T13:22:59;76.00;;;26.77;;
50301;SDS011;36550;50.472;19.744;2022-12-18T13:25:44;72.55;;;25.15;;
50301;SDS011;36550;50.472;19.744;2022-12-18T13:34:29;72.45;;;24.47;;
50301;SDS011;36550;50.472;19.744;2022-12-18T13:49:38;70.42;;;23.15;;
50301;SDS011;36550;50.472;19.744;2022-12-18T13:52:25;78.02;;;24.30;;
50301;SDS011;36550;50.472;19.744;2022-12-18T13:55:19;75.50;;;24.27;;
50301;SDS011;36550;50.472;19.744;2022-12-18T14:00:50;62.70;;;20.12;;
50301;SDS011;36550;50.472;19.744;2022-12-18T14:03:34;65.03;;;20.17;;
50301;SDS011;36550;50.472;19.744;2022-12-18T14:06:18;58.87;;;19.17;;
50301;SDS011;36550;50.472;19.744;2022-12-18T14:09:04;63.23;;;21.73;;
50301;SDS011;36550;50.472;19.744;2022-12-18T14:11:48;72.45;;;25.02;;
50301;SDS011;36550;50.472;19.744;2022-12-18T14:14:34;74.53;;;23.50;;
50301;SDS011;36550;50.472;19.744;2022-12-18T14:17:18;74.32;;;24.85;;
50301;SDS011;36550;50.472;19.744;2022-12-18T14:20:03;67.47;;;25.90;;
50301;SDS011;36550;50.472;19.744;2022-12-18T14:22:48;77.53;;;27.32;;
50301;SDS011;36550;50.472;19.744;2022-12-18T14:25:33;76.85;;;27.20;;
50301;SDS011;36550;50.472;19.744;2022-12-18T14:28:17;83.47;;;27.90;;
50301;SDS011;36550;50.472;19.744;2022-12-18T14:31:01;83.33;;;27.45;;
50301;SDS011;36550;50.472;19.744;2022-12-18T14:33:46;78.60;;;27.87;;
50301;SDS011;36550;50.472;19.744;2022-12-18T14:36:30;84.40;;;28.77;;
50301;SDS011;36550;50.472;19.744;2022-12-18T14:39:16;75.72;;;26.45;;
50301;SDS011;36550;50.472;19.744;2022-12-18T14:42:01;90.65;;;27.60;;
50301;SDS011;36550;50.472;19.744;2022-12-18T14:44:45;88.65;;;28.60;;
50301;SDS011;36550;50.472;19.744;2022-12-18T14:47:29;96.22;;;30.02;;
50301;SDS011;36550;50.472;19.744;2022-12-18T14:50:13;109.45;;;33.70;;
50301;SDS011;36550;50.472;19.744;2022-12-18T14:52:58;75.83;;;26.12;;
50301;SDS011;36550;50.472;19.744;2022-12-18T14:55:45;86.22;;;24.37;;
50301;SDS011;36550;50.472;19.744;2022-12-18T14:58:30;94.80;;;27.48;;
50301;SDS011;36550;50.472;19.744;2022-12-18T15:01:25;72.27;;;23.42;;
50301;SDS011;36550;50.472;19.744;2022-12-18T15:04:31;107.35;;;27.50;;
50301;SDS011;36550;50.472;19.744;2022-12-18T15:07:22;103.00;;;31.95;;
50301;SDS011;36550;50.472;19.744;2022-12-18T15:10:12;115.10;;;34.48;;
50301;SDS011;36550;50.472;19.744;2022-12-18T15:15:50;138.47;;;40.70;;
50301;SDS011;36550;50.472;19.744;2022-12-18T15:18:35;139.75;;;43.15;;
50301;SDS011;36550;50.472;19.744;2022-12-18T15:21:25;173.93;;;49.10;;
50301;SDS011;36550;50.472;19.744;2022-12-18T15:24:26;154.65;;;46.15;;
50301;SDS011;36550;50.472;19.744;2022-12-18T15:27:19;168.85;;;48.55;;
50301;SDS011;36550;50.472;19.744;2022-12-18T15:33:16;143.70;;;39.08;;
50301;SDS011;36550;50.472;19.744;2022-12-18T15:36:09;125.22;;;35.63;;
50301;SDS011;36550;50.472;19.744;2022-12-18T15:38:56;96.42;;;29.67;;
50301;SDS011;36550;50.472;19.744;2022-12-18T15:41:41;102.67;;;30.52;;
50301;SDS011;36550;50.472;19.744;2022-12-18T15:47:12;101.12;;;32.85;;
50301;SDS011;36550;50.472;19.744;2022-12-18T15:49:56;135.75;;;39.15;;
50301;SDS011;36550;50.472;19.744;2022-12-18T15:52:44;158.45;;;40.78;;
50301;SDS011;36550;50.472;19.744;2022-12-18T15:55:33;203.65;;;49.77;;
50301;SDS011;36550;50.472;19.744;2022-12-18T15:58:35;245.00;;;58.75;;
50301;SDS011;36550;50.472;19.744;2022-12-18T16:01:20;187.77;;;48.15;;
50301;SDS011;36550;50.472;19.744;2022-12-18T16:04:08;143.97;;;40.97;;
50301;SDS011;36550;50.472;19.744;2022-12-18T16:06:55;156.02;;;39.80;;
50301;SDS011;36550;50.472;19.744;2022-12-18T16:09:40;118.67;;;35.15;;
50301;SDS011;36550;50.472;19.744;2022-12-18T16:12:25;136.45;;;36.60;;
50301;SDS011;36550;50.472;19.744;2022-12-18T16:15:10;149.95;;;39.13;;
50301;SDS011;36550;50.472;19.744;2022-12-18T16:17:57;154.93;;;43.55;;
50301;SDS011;36550;50.472;19.744;2022-12-18T16:20:41;174.70;;;50.03;;
50301;SDS011;36550;50.472;19.744;2022-12-18T16:23:25;156.57;;;43.23;;
50301;SDS011;36550;50.472;19.744;2022-12-18T16:26:10;188.03;;;50.65;;
50301;SDS011;36550;50.472;19.744;2022-12-18T16:28:54;182.20;;;48.92;;
50301;SDS011;36550;50.472;19.744;2022-12-18T16:31:38;140.65;;;39.13;;
50301;SDS011;36550;50.472;19.744;2022-12-18T16:34:26;164.37;;;41.60;;
50301;SDS011;36550;50.472;19.744;2022-12-18T16:37:15;131.37;;;39.20;;
50301;SDS011;36550;50.472;19.744;2022-12-18T16:40:00;156.22;;;45.15;;
50301;SDS011;36550;50.472;19.744;2022-12-18T16:42:45;187.03;;;50.35;;
50301;SDS011;36550;50.472;19.744;2022-12-18T16:45:29;143.65;;;41.37;;
50301;SDS011;36550;50.472;19.744;2022-12-18T16:48:15;138.15;;;40.80;;
50301;SDS011;36550;50.472;19.744;2022-12-18T16:51:03;135.28;;;42.80;;
50301;SDS011;36550;50.472;19.744;2022-12-18T16:53:49;180.52;;;51.15;;
50301;SDS011;36550;50.472;19.744;2022-12-18T16:56:33;218.02;;;62.50;;
50301;SDS011;36550;50.472;19.744;2022-12-18T16:59:17;216.60;;;63.45;;
50301;SDS011;36550;50.472;19.744;2022-12-18T17:02:02;228.98;;;64.72;;
50301;SDS011;36550;50.472;19.744;2022-12-18T17:04:48;240.65;;;67.00;;
50301;SDS011;36550;50.472;19.744;2022-12-18T17:07:32;232.70;;;65.05;;
50301;SDS011;36550;50.472;19.744;2022-12-18T17:10:16;224.47;;;65.85;;
50301;SDS011;36550;50.472;19.744;2022-12-18T17:13:00;251.77;;;76.02;;
50301;SDS011;36550;50.472;19.744;2022-12-18T17:15:45;260.73;;;78.10;;
50301;SDS011;36550;50.472;19.744;2022-12-18T17:18:29;294.45;;;86.70;;
50301;SDS011;36550;50.472;19.744;2022-12-18T17:21:13;330.92;;;91.47;;
50301;SDS011;36550;50.472;19.744;2022-12-18T17:23:59;309.20;;;90.80;;
50301;SDS011;36550;50.472;19.744;2022-12-18T17:26:43;331.52;;;102.92;;
50301;SDS011;36550;50.472;19.744;2022-12-18T17:29:28;314.65;;;89.55;;
50301;SDS011;36550;50.472;19.744;2022-12-18T17:32:13;235.88;;;69.00;;
50301;SDS011;36550;50.472;19.744;2022-12-18T17:34:57;212.75;;;62.17;;
50301;SDS011;36550;50.472;19.744;2022-12-18T17:37:41;196.82;;;62.90;;
50301;SDS011;36550;50.472;19.744;2022-12-18T17:40:25;181.15;;;54.45;;
50301;SDS011;36550;50.472;19.744;2022-12-18T17:43:10;157.22;;;50.50;;
50301;SDS011;36550;50.472;19.744;2022-12-18T17:45:54;141.05;;;45.60;;
50301;SDS011;36550;50.472;19.744;2022-12-18T17:48:39;124.87;;;38.35;;
50301;SDS011;36550;50.472;19.744;2022-12-18T17:51:24;104.53;;;34.40;;